createdAt,value
2023-05-13T00:01:56.661Z,1
2023-05-13T00:04:02.237Z,1
2023-05-13T00:05:58.394Z,1
2023-05-13T00:08:02.884Z,1
2023-05-13T00:09:59.414Z,1
2023-05-13T00:12:09.318Z,1
2023-05-13T00:13:58.436Z,1
2023-05-13T00:15:59.162Z,1
2023-05-13T00:17:56.739Z,1
2023-05-13T00:19:56.311Z,1
2023-05-13T00:21:59.492Z,1
2023-05-13T00:23:56.531Z,1
2023-05-13T00:25:56.298Z,1
2023-05-13T00:27:58.516Z,1
2023-05-13T00:29:58.028Z,1
2023-05-13T00:31:56.972Z,1
2023-05-13T00:33:59.561Z,1
2023-05-13T00:35:56.334Z,1
2023-05-13T00:37:56.378Z,1
2023-05-13T00:39:56.507Z,1
2023-05-13T00:41:56.439Z,1
2023-05-13T00:45:56.411Z,1
2023-05-13T00:47:58.338Z,1
2023-05-13T00:50:01.790Z,1
2023-05-13T00:51:58.191Z,1
2023-05-13T00:53:56.448Z,1
2023-05-13T00:55:56.552Z,1
2023-05-13T00:57:56.389Z,1
2023-05-13T00:59:56.342Z,1
2023-05-13T01:01:56.469Z,1
2023-05-13T01:03:56.610Z,1
2023-05-13T01:06:04.872Z,1
2023-05-13T01:07:59.458Z,1
2023-05-13T01:10:01.794Z,1
2023-05-13T01:11:56.428Z,1
2023-05-13T01:14:03.003Z,1
2023-05-13T01:15:58.168Z,1
2023-05-13T01:17:56.337Z,1
2023-05-13T01:19:59.812Z,1
2023-05-13T01:21:58.332Z,1
2023-05-13T01:24:01.358Z,1
2023-05-13T01:26:01.736Z,1
2023-05-13T01:28:04.534Z,1
2023-05-13T01:30:08.995Z,1
2023-05-13T01:31:59.432Z,1
2023-05-13T01:33:58.160Z,1
2023-05-13T01:35:56.385Z,1
2023-05-13T01:38:01.552Z,1
2023-05-13T01:39:56.332Z,1
2023-05-13T01:41:58.193Z,1
2023-05-13T01:44:01.684Z,1
2023-05-13T01:45:56.402Z,1
2023-05-13T01:48:01.384Z,1
2023-05-13T01:49:56.367Z,1
2023-05-13T01:51:58.397Z,1
2023-05-13T01:54:01.788Z,1
2023-05-13T01:55:58.150Z,1
2023-05-13T01:59:58.238Z,1
2023-05-13T02:02:01.592Z,1
2023-05-13T02:03:56.434Z,1
2023-05-13T02:05:56.336Z,1
2023-05-13T02:07:58.397Z,1
2023-05-13T02:10:01.691Z,1
2023-05-13T02:12:01.423Z,1
2023-05-13T02:14:02.003Z,1
2023-05-13T02:16:05.006Z,1
2023-05-13T02:18:01.686Z,1
2023-05-13T02:19:56.336Z,1
2023-05-13T02:21:56.335Z,1
2023-05-13T02:23:56.398Z,1
2023-05-13T02:25:56.352Z,1
2023-05-13T02:28:01.708Z,1
2023-05-13T02:29:56.400Z,1
2023-05-13T02:31:59.695Z,1
2023-05-13T02:34:01.672Z,1
2023-05-13T02:37:56.464Z,1
2023-05-13T02:39:58.456Z,1
2023-05-13T02:41:59.511Z,1
2023-05-13T02:43:58.225Z,1
2023-05-13T02:45:56.379Z,1
2023-05-13T02:47:56.528Z,1
2023-05-13T02:49:58.674Z,1
2023-05-13T02:51:56.397Z,0
2023-05-13T02:53:56.359Z,0
2023-05-13T02:55:58.537Z,0
2023-05-13T02:59:56.336Z,0.1
2023-05-13T03:01:56.347Z,0.1
2023-05-13T03:04:03.075Z,0.2
2023-05-13T03:05:59.737Z,0.2
2023-05-13T03:07:56.365Z,0.3
2023-05-13T03:10:05.334Z,0.4
2023-05-13T03:12:05.198Z,0.4
2023-05-13T03:13:56.348Z,0.6
2023-05-13T03:15:56.438Z,0.8
2023-05-13T03:17:58.294Z,1.1
2023-05-13T03:19:56.482Z,1.5
2023-05-13T03:21:56.407Z,2
2023-05-13T03:23:58.283Z,2.7
2023-05-13T03:25:56.390Z,3.7
2023-05-13T03:27:56.477Z,4.7
2023-05-13T03:30:01.750Z,6
2023-05-13T03:31:58.291Z,7.4
2023-05-13T03:33:58.380Z,9.5
2023-05-13T03:35:56.550Z,11.6
2023-05-13T03:37:56.376Z,13.5
2023-05-13T03:43:56.453Z,20.1
2023-05-13T03:45:56.352Z,24.5
2023-05-13T03:47:56.380Z,28.5
2023-05-13T03:49:56.359Z,33.1
2023-05-13T03:51:59.823Z,36.6
2023-05-13T03:53:56.366Z,38.5
2023-05-13T03:57:59.499Z,49.4
2023-05-13T03:59:56.391Z,54.6
2023-05-13T04:01:56.426Z,60.3
2023-05-13T04:03:59.520Z,63.4
2023-05-13T04:05:56.402Z,70.1
2023-05-13T04:07:58.541Z,81.5
2023-05-13T04:09:56.503Z,90
2023-05-13T04:11:59.539Z,99.5
2023-05-13T04:13:56.373Z,109.9
2023-05-13T04:15:56.474Z,115.6
2023-05-13T04:17:59.681Z,121.5
2023-05-13T04:19:58.340Z,121.5
2023-05-13T04:23:56.441Z,134.3
2023-05-13T04:25:59.521Z,141.2
2023-05-13T04:27:56.401Z,148.4
2023-05-13T04:29:56.425Z,156
2023-05-13T04:31:56.467Z,172.4
2023-05-13T04:34:01.766Z,172.4
2023-05-13T04:35:59.561Z,172.4
2023-05-13T04:37:56.374Z,172.4
2023-05-13T04:39:56.445Z,172.4
2023-05-13T04:42:01.994Z,181.3
2023-05-13T04:43:59.538Z,200.3
2023-05-13T04:45:56.421Z,221.4
2023-05-13T04:47:58.784Z,244.7
2023-05-13T04:49:58.386Z,257.2
2023-05-13T04:51:59.604Z,257.2
2023-05-13T04:53:56.399Z,270.4
2023-05-13T04:55:56.443Z,284.3
2023-05-13T04:57:56.374Z,298.9
2023-05-13T05:00:03.185Z,347.2
2023-05-13T05:02:08.786Z,330.3
2023-05-13T05:04:05.129Z,347.2
2023-05-13T05:05:58.553Z,347.2
2023-05-13T05:07:58.353Z,365
2023-05-13T05:10:05.033Z,347.2
2023-05-13T05:11:56.505Z,383.8
2023-05-13T05:13:56.375Z,445.9
2023-05-13T05:15:56.388Z,468.7
2023-05-13T05:17:58.565Z,445.9
2023-05-13T05:19:56.491Z,445.9
2023-05-13T05:21:56.398Z,424.1
2023-05-13T05:23:56.439Z,424.1
2023-05-13T05:27:56.408Z,445.9
2023-05-13T05:29:58.425Z,424.1
2023-05-13T05:31:59.711Z,424.1
2023-05-13T05:33:56.405Z,445.9
2023-05-13T05:35:56.502Z,492.7
2023-05-13T05:37:58.705Z,492.7
2023-05-13T05:39:56.416Z,518
2023-05-13T05:41:56.482Z,544.6
2023-05-13T05:43:56.472Z,572.5
2023-05-13T05:45:59.621Z,601.8
2023-05-13T05:47:58.497Z,632.7
2023-05-13T05:49:56.453Z,632.7
2023-05-13T05:51:56.620Z,665.1
2023-05-13T05:53:56.405Z,699.2
2023-05-13T05:57:56.386Z,772.8
2023-05-13T05:59:56.386Z,812.4
2023-05-13T06:01:56.448Z,812.4
2023-05-13T06:03:59.541Z,897.8
2023-05-13T06:05:56.370Z,1096.6
2023-05-13T06:07:58.742Z,1274.1
2023-05-13T06:09:56.412Z,1339.4
2023-05-13T06:11:58.317Z,1408.1
2023-05-13T06:13:59.560Z,1408.1
2023-05-13T06:15:58.409Z,1339.4
2023-05-13T06:17:56.462Z,1339.4
2023-05-13T06:19:56.421Z,1043.1
2023-05-13T06:22:05.113Z,897.8
2023-05-13T06:23:56.444Z,943.9
2023-05-13T06:25:56.374Z,992.3
2023-05-13T06:28:01.490Z,1043.1
2023-05-13T06:29:59.477Z,1043.1
2023-05-13T06:31:56.438Z,1043.1
2023-05-13T06:33:56.423Z,1043.1
2023-05-13T06:36:01.761Z,1043.1
2023-05-13T06:37:56.488Z,1096.6
2023-05-13T06:39:59.687Z,897.8
2023-05-13T06:42:05.302Z,854.1
2023-05-13T06:43:56.402Z,735.1
2023-05-13T06:45:56.403Z,812.4
2023-05-13T06:47:59.805Z,943.9
2023-05-13T06:49:59.539Z,1096.6
2023-05-13T06:51:59.532Z,1152.9
2023-05-13T06:53:59.557Z,1212
2023-05-13T06:55:56.596Z,1096.6
2023-05-13T06:57:56.404Z,1212
2023-05-13T06:59:59.521Z,1339.4
2023-05-13T07:01:59.502Z,1408.1
2023-05-13T07:03:56.605Z,1556.2
2023-05-13T07:05:56.434Z,1556.2
2023-05-13T07:07:56.487Z,1636
2023-05-13T07:12:03.134Z,1636
2023-05-13T07:13:59.566Z,1408.1
2023-05-13T07:16:01.801Z,1480.3
2023-05-13T07:18:02.227Z,1719.9
2023-05-13T07:19:58.713Z,1719.9
2023-05-13T07:21:58.621Z,1480.3
2023-05-13T07:23:56.443Z,1480.3
2023-05-13T07:25:56.432Z,1480.3
2023-05-13T07:27:56.501Z,1556.2
2023-05-13T07:29:56.476Z,1636
2023-05-13T07:31:56.420Z,1719.9
2023-05-13T07:33:56.421Z,1636
2023-05-13T07:35:56.520Z,1480.3
2023-05-13T07:37:56.426Z,1408.1
2023-05-13T07:39:56.432Z,1408.1
2023-05-13T07:41:59.614Z,1408.1
2023-05-13T07:43:59.623Z,1408.1
2023-05-13T07:45:59.564Z,1408.1
2023-05-13T07:48:01.974Z,1480.3
2023-05-13T07:49:58.510Z,1480.3
2023-05-13T07:51:56.463Z,1556.2
2023-05-13T07:53:58.375Z,1636
2023-05-13T07:56:05.279Z,1556.2
2023-05-13T07:57:56.402Z,1719.9
2023-05-13T07:59:59.697Z,1636
2023-05-13T08:01:56.434Z,1636
2023-05-13T08:03:56.645Z,1900.7
2023-05-13T08:05:56.411Z,1556.2
2023-05-13T08:07:56.428Z,1212
2023-05-13T08:10:08.746Z,1152.9
2023-05-13T08:11:56.440Z,1212
2023-05-13T08:13:59.528Z,1152.9
2023-05-13T08:16:01.770Z,1274.1
2023-05-13T08:17:58.464Z,1339.4
2023-05-13T08:20:01.753Z,1636
2023-05-13T08:21:58.765Z,1808
2023-05-13T08:23:56.492Z,1636
2023-05-13T08:25:59.632Z,1636
2023-05-13T08:27:56.418Z,1556.2
2023-05-13T08:29:59.554Z,1719.9
2023-05-13T08:31:59.353Z,1900.7
2023-05-13T08:33:56.441Z,1998.2
2023-05-13T08:35:56.460Z,1636
2023-05-13T08:38:01.929Z,1480.3
2023-05-13T08:39:56.534Z,1408.1
2023-05-13T08:41:56.441Z,1274.1
2023-05-13T08:43:56.420Z,1152.9
2023-05-13T08:46:01.963Z,1152.9
2023-05-13T08:48:01.810Z,1212
2023-05-13T08:49:56.414Z,1408.1
2023-05-13T08:51:59.590Z,1636
2023-05-13T08:53:58.496Z,1636
2023-05-13T08:56:01.824Z,1719.9
2023-05-13T08:57:59.582Z,1719.9
2023-05-13T08:59:56.402Z,1556.2
2023-05-13T09:01:56.407Z,1636
2023-05-13T09:03:58.690Z,1556.2
2023-05-13T09:06:01.632Z,1556.2
2023-05-13T09:07:56.494Z,1480.3
2023-05-13T09:10:02.803Z,1480.3
2023-05-13T09:11:58.788Z,1719.9
2023-05-13T09:14:01.798Z,1998.2
2023-05-13T09:15:59.683Z,2100.6
2023-05-13T09:18:02.996Z,2208.3
2023-05-13T09:19:56.609Z,2321.6
2023-05-13T09:21:58.460Z,2565.7
2023-05-13T09:23:56.497Z,2208.3
2023-05-13T09:26:01.967Z,2208.3
2023-05-13T09:27:56.497Z,1998.2
2023-05-13T09:29:56.476Z,1900.7
2023-05-13T09:32:03.038Z,1900.7
2023-05-13T09:34:01.757Z,2100.6
2023-05-13T09:35:58.471Z,2208.3
2023-05-13T09:37:58.384Z,2100.6
2023-05-13T09:40:01.712Z,2321.6
2023-05-13T09:41:56.452Z,2321.6
2023-05-13T09:43:56.447Z,2208.3
2023-05-13T09:45:56.456Z,2208.3
2023-05-13T09:47:59.715Z,2208.3
2023-05-13T09:49:56.417Z,1900.7
2023-05-13T09:51:56.481Z,1808
2023-05-13T09:53:58.772Z,1900.7
2023-05-13T09:55:56.421Z,2208.3
2023-05-13T09:57:56.483Z,2208.3
2023-05-13T09:59:56.470Z,1900.7
2023-05-13T10:01:56.467Z,1408.1
2023-05-13T10:04:01.738Z,1480.3
2023-05-13T10:06:01.392Z,1900.7
2023-05-13T10:07:56.637Z,1998.2
2023-05-13T10:09:56.469Z,1900.7
2023-05-13T10:13:58.574Z,1998.2
2023-05-13T10:15:56.551Z,2100.6
2023-05-13T10:17:58.448Z,2208.3
2023-05-13T10:19:59.662Z,2565.7
2023-05-13T10:22:00.416Z,2835.6
2023-05-13T10:24:02.838Z,2981
2023-05-13T10:25:58.588Z,2697.3
2023-05-13T10:27:56.469Z,2565.7
2023-05-13T10:30:00.541Z,2565.7
2023-05-13T10:31:59.890Z,2835.6
2023-05-13T10:33:59.866Z,3133.8
2023-05-13T10:36:03.081Z,3133.8
2023-05-13T10:37:58.626Z,2697.3
2023-05-13T10:39:56.588Z,2321.6
2023-05-13T10:41:56.416Z,2100.6
2023-05-13T10:43:58.519Z,2440.6
2023-05-13T10:45:59.733Z,2835.6
2023-05-13T10:47:58.847Z,3827.6
2023-05-13T10:49:56.465Z,5166.8
2023-05-13T10:51:56.473Z,5431.7
2023-05-13T10:53:56.436Z,4914.8
2023-05-13T10:56:02.081Z,4447.1
2023-05-13T10:58:02.322Z,3827.6
2023-05-13T10:59:58.445Z,2981
2023-05-13T11:01:59.808Z,2565.7
2023-05-13T11:03:58.670Z,2321.6
2023-05-13T11:06:01.874Z,2321.6
2023-05-13T11:07:56.476Z,2565.7
2023-05-13T11:09:56.405Z,2440.6
2023-05-13T11:11:58.616Z,2321.6
2023-05-13T11:13:56.444Z,2208.3
2023-05-13T11:15:58.711Z,2100.6
2023-05-13T11:18:03.151Z,2208.3
2023-05-13T11:19:56.449Z,2440.6
2023-05-13T11:21:56.459Z,2835.6
2023-05-13T11:24:03.122Z,2835.6
2023-05-13T11:25:56.405Z,2981
2023-05-13T11:27:58.970Z,3133.8
2023-05-13T11:29:59.996Z,3294.5
2023-05-13T11:32:00.197Z,2981
2023-05-13T11:34:01.962Z,2565.7
2023-05-13T11:35:56.562Z,2981
2023-05-13T11:37:58.325Z,4230.2
2023-05-13T11:39:56.427Z,5710.1
2023-05-13T11:41:56.423Z,6974.4
2023-05-13T11:43:56.497Z,7332
2023-05-13T11:46:02.227Z,6634.2
2023-05-13T11:47:56.505Z,5431.7
2023-05-13T11:49:59.817Z,3827.6
2023-05-13T11:52:03.186Z,2981
2023-05-13T11:53:58.679Z,2565.7
2023-05-13T11:55:56.455Z,2565.7
2023-05-13T11:58:02.062Z,2835.6
2023-05-13T11:59:59.769Z,2981
2023-05-13T12:01:56.520Z,2697.3
2023-05-13T12:04:03.013Z,2565.7
2023-05-13T12:05:56.415Z,2565.7
2023-05-13T12:07:58.754Z,2565.7
2023-05-13T12:09:56.486Z,2697.3
2023-05-13T12:12:05.303Z,2565.7
2023-05-13T12:13:56.469Z,2565.7
2023-05-13T12:15:56.569Z,2835.6
2023-05-13T12:17:56.453Z,3463.4
2023-05-13T12:19:58.582Z,4447.1
2023-05-13T12:22:05.614Z,5166.8
2023-05-13T12:23:58.537Z,5710.1
2023-05-13T12:25:58.682Z,6634.2
2023-05-13T12:28:02.156Z,8103.1
2023-05-13T12:29:56.451Z,9414.4
2023-05-13T12:31:56.556Z,10938
2023-05-13T12:33:59.703Z,11498.8
2023-05-13T12:35:59.612Z,10938
2023-05-13T12:37:56.463Z,8955.3
2023-05-13T12:40:02.358Z,6634.2
2023-05-13T12:41:58.636Z,4447.1
2023-05-13T12:43:58.727Z,3827.6
2023-05-13T12:45:56.518Z,4230.2
2023-05-13T12:47:56.565Z,5431.7
2023-05-13T12:49:56.493Z,7332
2023-05-13T12:51:56.459Z,9414.4
2023-05-13T12:54:03.363Z,11498.8
2023-05-13T12:55:58.621Z,13359.7
2023-05-13T12:57:56.469Z,12708.2
2023-05-13T13:00:02.209Z,9897.1
2023-05-13T13:01:56.474Z,8518.5
2023-05-13T13:03:59.837Z,8103.1
2023-05-13T13:05:56.431Z,7332
2023-05-13T13:07:56.436Z,6974.4
2023-05-13T13:09:56.468Z,7332
2023-05-13T13:11:56.454Z,7707.9
2023-05-13T13:13:56.437Z,8518.5
2023-05-13T13:16:02.164Z,8103.1
2023-05-13T13:17:58.718Z,6974.4
2023-05-13T13:19:58.709Z,5710.1
2023-05-13T13:21:59.891Z,4914.8
2023-05-13T13:24:03.057Z,5166.8
2023-05-13T13:26:03.254Z,5710.1
2023-05-13T13:27:59.812Z,6634.2
2023-05-13T13:31:59.860Z,7707.9
2023-05-13T13:33:58.929Z,7707.9
2023-05-13T13:35:58.856Z,7707.9
2023-05-13T13:37:56.470Z,7332
2023-05-13T13:39:56.493Z,6974.4
2023-05-13T13:41:56.451Z,7707.9
2023-05-13T13:43:58.978Z,8518.5
2023-05-13T13:45:59.855Z,9414.4
2023-05-13T13:47:56.479Z,9897.1
2023-05-13T13:49:56.454Z,10938
2023-05-13T13:52:02.708Z,14044.7
2023-05-13T13:53:58.904Z,10938
2023-05-13T13:55:56.512Z,12708.2
2023-05-13T13:57:59.855Z,12088.4
2023-05-13T13:59:56.511Z,8955.3
2023-05-13T14:01:56.621Z,7707.9
2023-05-13T14:06:02.335Z,6634.2
2023-05-13T14:08:02.608Z,6974.4
2023-05-13T14:11:59.818Z,6974.4
2023-05-13T14:13:56.442Z,6634.2
2023-05-13T14:16:03.276Z,7332
2023-05-13T14:17:56.505Z,8518.5
2023-05-13T14:22:03.246Z,8955.3
2023-05-13T14:23:59.792Z,8518.5
2023-05-13T14:25:59.628Z,8518.5
2023-05-13T14:27:56.490Z,7332
2023-05-13T14:30:02.282Z,6974.4
2023-05-13T14:31:59.192Z,7332
2023-05-13T14:34:02.349Z,6634.2
2023-05-13T14:36:03.134Z,7332
2023-05-13T14:38:02.688Z,7707.9
2023-05-13T14:40:03.160Z,8103.1
2023-05-13T14:42:02.207Z,5710.1
2023-05-13T14:43:59.875Z,6002.9
2023-05-13T14:45:56.490Z,5166.8
2023-05-13T14:47:59.850Z,4230.2
2023-05-13T14:50:02.682Z,3294.5
2023-05-13T14:51:59.328Z,3294.5
2023-05-13T14:53:59.606Z,3827.6
2023-05-13T14:55:59.188Z,4447.1
2023-05-13T14:58:05.466Z,4675.1
2023-05-13T15:00:02.944Z,4023.9
2023-05-13T15:01:56.455Z,3294.5
2023-05-13T15:04:03.304Z,2981
2023-05-13T15:06:05.600Z,2981
2023-05-13T15:07:59.120Z,2981
2023-05-13T15:09:56.478Z,3133.8
2023-05-13T15:11:59.304Z,3133.8
2023-05-13T15:13:56.472Z,3133.8
2023-05-13T15:15:56.493Z,2981
2023-05-13T15:19:59.753Z,3294.5
2023-05-13T15:21:56.474Z,3463.4
2023-05-13T15:23:56.498Z,3294.5
2023-05-13T15:25:56.470Z,3294.5
2023-05-13T15:27:59.387Z,3294.5
2023-05-13T15:29:56.497Z,3133.8
2023-05-13T15:31:59.256Z,2981
2023-05-13T15:33:56.507Z,2981
2023-05-13T15:35:56.530Z,2697.3
2023-05-13T15:38:05.679Z,2565.7
2023-05-13T15:39:56.561Z,2697.3
2023-05-13T15:41:56.488Z,2981
2023-05-13T15:43:56.762Z,3133.8
2023-05-13T15:46:05.631Z,3133.8
2023-05-13T15:47:59.614Z,3133.8
2023-05-13T15:49:56.505Z,2981
2023-05-13T15:52:04.388Z,2835.6
2023-05-13T15:54:02.810Z,2697.3
2023-05-13T15:55:56.491Z,2565.7
2023-05-13T15:57:56.452Z,2321.6
2023-05-13T16:00:03.151Z,2208.3
2023-05-13T16:02:02.895Z,2100.6
2023-05-13T16:03:56.506Z,2100.6
2023-05-13T16:06:02.808Z,1998.2
2023-05-13T16:07:59.701Z,1998.2
2023-05-13T16:09:56.461Z,1998.2
2023-05-13T16:11:56.470Z,1900.7
2023-05-13T16:13:56.508Z,1900.7
2023-05-13T16:15:56.510Z,1808
2023-05-13T16:17:56.544Z,1808
2023-05-13T16:19:56.549Z,1719.9
2023-05-13T16:21:56.479Z,1719.9
2023-05-13T16:24:02.874Z,1719.9
2023-05-13T16:25:56.492Z,1719.9
2023-05-13T16:27:59.250Z,1636
2023-05-13T16:29:56.492Z,1636
2023-05-13T16:32:03.239Z,1556.2
2023-05-13T16:33:59.651Z,1480.3
2023-05-13T16:35:56.519Z,1480.3
2023-05-13T16:38:02.882Z,1408.1
2023-05-13T16:39:56.497Z,1274.1
2023-05-13T16:41:56.509Z,1152.9
2023-05-13T16:43:56.539Z,1043.1
2023-05-13T16:45:56.489Z,943.9
2023-05-13T16:47:56.918Z,897.8
2023-05-13T16:50:06.045Z,854.1
2023-05-13T16:52:05.144Z,854.1
2023-05-13T16:53:59.655Z,812.4
2023-05-13T16:55:56.526Z,812.4
2023-05-13T16:57:56.461Z,735.1
2023-05-13T16:59:56.504Z,699.2
2023-05-13T17:02:02.678Z,665.1
2023-05-13T17:03:56.598Z,632.7
2023-05-13T17:05:56.478Z,632.7
2023-05-13T17:07:56.452Z,632.7
2023-05-13T17:09:56.499Z,601.8
2023-05-13T17:11:56.510Z,572.5
2023-05-13T17:13:56.525Z,544.6
2023-05-13T17:15:56.546Z,492.7
2023-05-13T17:17:56.497Z,445.9
2023-05-13T17:19:59.758Z,403.4
2023-05-13T17:21:59.274Z,383.8
2023-05-13T17:23:59.639Z,403.4
2023-05-13T17:25:56.504Z,424.1
2023-05-13T17:27:56.542Z,445.9
2023-05-13T17:29:56.468Z,445.9
2023-05-13T17:31:56.503Z,468.7
2023-05-13T17:33:56.578Z,445.9
2023-05-13T17:35:59.808Z,445.9
2023-05-13T17:37:56.653Z,403.4
2023-05-13T17:39:59.718Z,383.8
2023-05-13T17:41:56.470Z,365
2023-05-13T17:43:56.532Z,330.3
2023-05-13T17:45:56.468Z,330.3
2023-05-13T17:47:56.800Z,314.2
2023-05-13T17:49:56.613Z,314.2
2023-05-13T17:51:56.499Z,314.2
2023-05-13T17:53:56.500Z,298.9
2023-05-13T17:56:03.308Z,284.3
2023-05-13T17:57:56.474Z,284.3
2023-05-13T17:59:56.607Z,298.9
2023-05-13T18:01:59.571Z,298.9
2023-05-13T18:04:03.286Z,284.3
2023-05-13T18:05:56.563Z,257.2
2023-05-13T18:07:56.937Z,244.7
2023-05-13T18:10:03.058Z,221.4
2023-05-13T18:12:02.758Z,200.3
2023-05-13T18:13:56.481Z,181.3
2023-05-13T18:15:59.589Z,156
2023-05-13T18:17:59.713Z,141.2
2023-05-13T18:19:56.714Z,115.6
2023-05-13T18:22:03.145Z,99.5
2023-05-13T18:23:56.490Z,85.6
2023-05-13T18:26:02.947Z,70.1
2023-05-13T18:27:59.661Z,63.4
2023-05-13T18:29:56.701Z,60.3
2023-05-13T18:31:56.772Z,57.4
2023-05-13T18:33:56.726Z,54.6
2023-05-13T18:35:56.570Z,49.4
2023-05-13T18:37:59.661Z,42.5
2023-05-13T18:39:59.643Z,34.8
2023-05-13T18:41:59.883Z,30
2023-05-13T18:43:56.893Z,25.8
2023-05-13T18:45:57.825Z,21.1
2023-05-13T18:47:59.703Z,17.3
2023-05-13T18:50:03.059Z,14.2
2023-05-13T18:51:56.511Z,11
2023-05-13T18:53:59.815Z,8.6
2023-05-13T18:55:59.891Z,6.4
2023-05-13T18:57:56.556Z,4.7
2023-05-13T18:59:57.157Z,3.2
2023-05-13T19:02:03.112Z,1.9
2023-05-13T19:03:56.645Z,1.3
2023-05-13T19:05:59.776Z,0.9
2023-05-13T19:08:03.780Z,0.6
2023-05-13T19:09:56.539Z,0.4
2023-05-13T19:11:56.784Z,0.3
2023-05-13T19:13:56.629Z,0.3
2023-05-13T19:15:59.799Z,0.2
2023-05-13T19:18:03.590Z,0.1
2023-05-13T19:19:56.645Z,0.1
2023-05-13T19:22:03.257Z,0.1
2023-05-13T19:24:03.344Z,0
2023-05-13T19:27:56.636Z,0
2023-05-13T19:29:57.044Z,0
2023-05-13T19:32:00.289Z,0
2023-05-13T19:33:56.655Z,0
2023-05-13T19:35:56.929Z,0
2023-05-13T19:38:03.074Z,1
2023-05-13T19:39:56.860Z,1
2023-05-13T19:41:56.672Z,1
2023-05-13T19:44:03.494Z,1
2023-05-13T19:45:59.844Z,1
2023-05-13T19:47:56.697Z,1
2023-05-13T19:49:56.741Z,1
2023-05-13T19:51:56.935Z,1
2023-05-13T19:53:56.684Z,1
2023-05-13T19:55:58.019Z,1
2023-05-13T19:57:57.675Z,1
2023-05-13T19:59:57.388Z,1
2023-05-13T20:02:00.875Z,1
2023-05-13T20:04:07.858Z,1
2023-05-13T20:05:57.389Z,1
2023-05-13T20:08:00.637Z,1
2023-05-13T20:10:00.705Z,1
2023-05-13T20:11:57.410Z,1
2023-05-13T20:13:57.322Z,1
2023-05-13T20:15:57.715Z,1
2023-05-13T20:17:57.406Z,1
2023-05-13T20:19:57.456Z,1
2023-05-13T20:22:00.812Z,1
2023-05-13T20:24:04.212Z,1
2023-05-13T20:26:04.365Z,1
2023-05-13T20:27:57.358Z,1
2023-05-13T20:29:57.719Z,1
2023-05-13T20:31:57.503Z,1
2023-05-13T20:34:00.815Z,1
2023-05-13T20:35:57.463Z,1
2023-05-13T20:38:04.058Z,1
2023-05-13T20:39:57.429Z,1
2023-05-13T20:42:00.679Z,1
2023-05-13T20:43:57.492Z,1
2023-05-13T20:45:59.968Z,1
2023-05-13T20:48:00.919Z,1
2023-05-13T20:49:57.461Z,1
2023-05-13T20:51:57.465Z,1
2023-05-13T20:54:00.816Z,1
2023-05-13T20:56:00.626Z,1
2023-05-13T20:57:57.385Z,1
2023-05-13T20:59:57.704Z,1
2023-05-13T21:01:57.800Z,1
2023-05-13T21:03:57.481Z,1
2023-05-13T21:05:57.466Z,1
2023-05-13T21:09:57.419Z,1
2023-05-13T21:11:57.466Z,1
2023-05-13T21:14:00.695Z,1
2023-05-13T21:15:57.724Z,1
2023-05-13T21:17:57.526Z,1
2023-05-13T21:19:57.491Z,1
2023-05-13T21:21:57.440Z,1
2023-05-13T21:24:00.788Z,1
2023-05-13T21:25:57.772Z,1
2023-05-13T21:27:57.727Z,1
2023-05-13T21:29:57.678Z,1
2023-05-13T21:31:57.716Z,1
2023-05-13T21:34:00.699Z,1
2023-05-13T21:35:57.571Z,1
2023-05-13T21:38:08.521Z,1
2023-05-13T21:39:57.408Z,1
2023-05-13T21:41:57.519Z,1
2023-05-13T21:44:04.301Z,1
2023-05-13T21:45:57.735Z,1
2023-05-13T21:47:57.571Z,1
2023-05-13T21:50:04.747Z,1
2023-05-13T21:51:57.759Z,1
2023-05-13T21:53:57.492Z,1
2023-05-13T21:55:57.835Z,1
2023-05-13T21:57:57.766Z,1
2023-05-13T21:59:57.682Z,1
2023-05-13T22:01:57.852Z,1
2023-05-13T22:04:02.362Z,1
2023-05-13T22:05:58.277Z,1
2023-05-13T22:08:01.550Z,1
2023-05-13T22:09:58.152Z,1
2023-05-13T22:11:58.590Z,1
2023-05-13T22:13:58.255Z,1
2023-05-13T22:15:58.577Z,1
2023-05-13T22:17:58.912Z,1
2023-05-13T22:20:05.794Z,1
2023-05-13T22:21:58.542Z,1
2023-05-13T22:23:58.266Z,1
2023-05-13T22:25:58.265Z,1
2023-05-13T22:28:12.748Z,1
2023-05-13T22:29:58.629Z,1
2023-05-13T22:31:58.326Z,1
2023-05-13T22:35:58.608Z,1
2023-05-13T22:38:05.118Z,1
2023-05-13T22:39:58.267Z,1
2023-05-13T22:42:01.984Z,1
2023-05-13T22:43:58.386Z,1
2023-05-13T22:45:58.641Z,1
2023-05-13T22:50:05.528Z,1
2023-05-13T22:52:01.954Z,1
2023-05-13T22:53:58.434Z,1
2023-05-13T22:55:58.484Z,1
2023-05-13T22:57:58.322Z,1
2023-05-13T22:59:58.349Z,1
2023-05-13T23:01:58.636Z,1
2023-05-13T23:04:05.181Z,1
2023-05-13T23:05:58.627Z,1
2023-05-13T23:07:58.545Z,1
2023-05-13T23:09:58.489Z,1
2023-05-13T23:12:08.287Z,1
2023-05-13T23:13:58.412Z,1
2023-05-13T23:15:58.458Z,1
2023-05-13T23:17:58.451Z,1
2023-05-13T23:19:58.803Z,1
2023-05-13T23:22:01.854Z,1
2023-05-13T23:23:58.699Z,1
2023-05-13T23:25:58.467Z,1
2023-05-13T23:28:02.312Z,1
2023-05-13T23:29:58.718Z,1
2023-05-13T23:31:58.575Z,1
2023-05-13T23:33:58.456Z,1
2023-05-13T23:35:58.773Z,1
2023-05-13T23:37:58.546Z,1
2023-05-13T23:39:58.539Z,1
2023-05-13T23:41:58.515Z,1
2023-05-13T23:43:58.900Z,1
2023-05-13T23:45:58.984Z,1
2023-05-13T23:48:02.286Z,1
2023-05-13T23:52:05.661Z,1
2023-05-13T23:53:58.482Z,1
2023-05-13T23:56:02.019Z,1
2023-05-13T23:57:58.506Z,1
